Time;durP1;ratioP1;P1;durP2;ratioP2;P2;SDS_P1;SDS_P2;PMS_P1;PMS_P2;Temp;Humidity;BMP_temperature;BMP_pressure;BME280_temperature;BME280_humidity;BME280_pressure;Samples;Min_cycle;Max_cycle;Signal;HPM_P1;HPM_P2
2023/01/04 00:00:21;;;;;;;1.23;1.23;;;;;;;;;;7385202;19;20188;-65
2023/01/04 00:02:47;;;;;;;8.67;1.83;;;;;;;;;;7384582;19;20600;-66
2023/01/04 00:05:12;;;;;;;1.53;1.43;;;;;;;;;;7386522;19;20155;-65
2023/01/04 00:07:37;;;;;;;1.97;0.70;;;;;;;;;;7388246;19;20129;-65
2023/01/04 00:10:03;;;;;;;0.50;0.50;;;;;;;;;;7360548;19;20121;-65
2023/01/04 00:12:28;;;;;;;0.53;0.53;;;;;;;;;;7382132;19;20623;-65
2023/01/04 00:14:53;;;;;;;0.50;0.50;;;;;;;;;;7376982;19;20149;-65
2023/01/04 00:17:19;;;;;;;0.37;0.37;;;;;;;;;;7387457;19;20130;-65
2023/01/04 00:19:44;;;;;;;0.97;0.97;;;;;;;;;;7381577;19;20127;-65
2023/01/04 00:22:09;;;;;;;0.97;0.77;;;;;;;;;;7387016;19;20145;-65
2023/01/04 00:24:35;;;;;;;1.27;1.17;;;;;;;;;;7383863;19;20626;-65
2023/01/04 00:27:00;;;;;;;0.83;0.83;;;;;;;;;;7387293;19;20176;-65
2023/01/04 00:29:25;;;;;;;1.13;1.03;;;;;;;;;;7386505;19;20127;-65
2023/01/04 00:31:50;;;;;;;0.50;0.50;;;;;;;;;;7366833;19;20490;-65
2023/01/04 00:34:17;;;;;;;1.67;1.57;;;;;;;;;;7363839;19;20160;-65
2023/01/04 00:36:43;;;;;;;2.87;1.83;;;;;;;;;;7365736;19;20445;-66
2023/01/04 00:39:13;;;;;;;1.07;1.07;;;;;;;;;;7380020;19;20140;-65
2023/01/04 00:41:38;;;;;;;0.60;0.60;;;;;;;;;;7386116;19;20137;-65
2023/01/04 00:44:07;;;;;;;1.30;1.20;;;;;;;;;;7375873;19;20157;-66
2023/01/04 00:46:36;;;;;;;1.20;0.97;;;;;;;;;;7381211;19;20149;-65
2023/01/04 00:49:02;;;;;;;1.67;1.00;;;;;;;;;;7386162;19;20490;-65
2023/01/04 00:51:29;;;;;;;1.20;1.10;;;;;;;;;;7375281;19;20133;-65
2023/01/04 00:53:54;;;;;;;5.33;1.43;;;;;;;;;;7382738;19;20163;-63
2023/01/04 00:56:20;;;;;;;0.53;0.53;;;;;;;;;;7388291;19;20137;-65
2023/01/04 00:58:45;;;;;;;1.23;1.13;;;;;;;;;;7388180;19;20113;-65
2023/01/04 01:01:10;;;;;;;2.10;1.53;;;;;;;;;;7389838;19;20185;-65
2023/01/04 01:03:36;;;;;;;1.23;1.13;;;;;;;;;;7382434;19;20494;-65
2023/01/04 01:06:03;;;;;;;1.63;1.07;;;;;;;;;;7378902;19;20129;-64
2023/01/04 01:08:29;;;;;;;1.93;1.63;;;;;;;;;;7369760;19;20140;-64
2023/01/04 01:10:55;;;;;;;3.13;1.53;;;;;;;;;;7377617;19;20594;-64
2023/01/04 01:13:21;;;;;;;2.30;2.10;;;;;;;;;;7372082;19;20730;-66
2023/01/04 01:15:47;;;;;;;1.33;1.20;;;;;;;;;;7357240;19;20645;-64
2023/01/04 01:18:13;;;;;;;2.27;2.10;;;;;;;;;;7376265;19;20121;-64
2023/01/04 01:20:43;;;;;;;2.10;1.23;;;;;;;;;;7369118;19;20128;-64
2023/01/04 01:23:12;;;;;;;2.00;1.83;;;;;;;;;;7377033;19;20137;-64
2023/01/04 01:25:37;;;;;;;0.83;0.83;;;;;;;;;;7362882;19;20200;-64
2023/01/04 01:28:03;;;;;;;1.40;1.23;;;;;;;;;;7376858;19;20142;-64
2023/01/04 01:30:28;;;;;;;0.80;0.80;;;;;;;;;;7365647;19;20140;-64
2023/01/04 01:32:53;;;;;;;3.17;1.40;;;;;;;;;;7367968;19;20149;-64
2023/01/04 01:35:18;;;;;;;1.80;1.70;;;;;;;;;;7379649;19;20157;-64
2023/01/04 01:37:44;;;;;;;0.83;0.83;;;;;;;;;;7382034;19;20618;-64
2023/01/04 01:40:10;;;;;;;1.57;1.47;;;;;;;;;;7378170;19;20134;-64
2023/01/04 01:42:35;;;;;;;1.07;1.07;;;;;;;;;;7376651;19;20163;-64
2023/01/04 01:45:09;;;;;;;3.33;2.27;;;;;;;;;;7380475;19;20225;-64
2023/01/04 01:47:45;;;;;;;1.93;1.83;;;;;;;;;;7382211;19;20158;-64
2023/01/04 01:50:21;;;;;;;1.67;1.57;;;;;;;;;;7377997;19;20152;-64
2023/01/04 01:52:47;;;;;;;2.27;2.03;;;;;;;;;;7375748;19;20159;-64
2023/01/04 01:55:12;;;;;;;6.63;1.80;;;;;;;;;;7384313;19;20121;-64
2023/01/04 01:57:38;;;;;;;1.03;1.03;;;;;;;;;;7380474;19;20172;-64
2023/01/04 02:00:11;;;;;;;1.50;1.43;;;;;;;;;;7380863;19;20603;-64
2023/01/04 02:02:40;;;;;;;2.93;1.37;;;;;;;;;;7378982;19;20152;-63
2023/01/04 02:05:05;;;;;;;4.60;1.63;;;;;;;;;;7373289;19;20458;-64
2023/01/04 02:07:30;;;;;;;2.33;1.70;;;;;;;;;;7381816;19;20137;-64
2023/01/04 02:09:56;;;;;;;1.33;1.27;;;;;;;;;;7368563;19;20121;-64
2023/01/04 02:12:22;;;;;;;0.67;0.63;;;;;;;;;;7369947;19;20156;-64
2023/01/04 02:14:49;;;;;;;1.63;1.20;;;;;;;;;;7374649;19;20152;-64
2023/01/04 02:17:47;;;;;;;1.00;1.00;;;;;;;;;;7372287;19;20133;-64
2023/01/04 02:20:27;;;;;;;1.40;1.30;;;;;;;;;;7378214;19;20205;-64
2023/01/04 02:23:27;;;;;;;1.07;1.07;;;;;;;;;;7379429;19;20154;-64
2023/01/04 02:25:55;;;;;;;0.57;0.57;;;;;;;;;;7384402;19;20129;-65
2023/01/04 02:28:44;;;;;;;0.97;0.97;;;;;;;;;;7379598;19;20121;-65
2023/01/04 02:31:20;;;;;;;1.20;1.10;;;;;;;;;;7388654;19;20188;-64
2023/01/04 02:34:22;;;;;;;1.47;1.13;;;;;;;;;;7380997;19;20610;-65
2023/01/04 02:37:18;;;;;;;1.50;0.93;;;;;;;;;;7386344;19;20277;-65
2023/01/04 02:39:58;;;;;;;0.40;0.40;;;;;;;;;;7382728;19;20148;-65
2023/01/04 02:45:35;;;;;;;0.63;0.63;;;;;;;;;;7381873;19;20152;-65
2023/01/04 02:50:58;;;;;;;1.57;1.47;;;;;;;;;;7388552;19;20143;-65
2023/01/04 02:53:41;;;;;;;1.03;0.73;;;;;;;;;;7384674;19;20145;-65
2023/01/04 02:56:10;;;;;;;0.40;0.40;;;;;;;;;;7385958;19;20121;-65
2023/01/04 02:59:13;;;;;;;0.80;0.67;;;;;;;;;;7384363;19;20205;-65
2023/01/04 03:08:19;;;;;;;0.63;0.63;;;;;;;;;;7387309;19;20131;-65
2023/01/04 03:13:56;;;;;;;0.90;0.90;;;;;;;;;;7387282;19;20163;-65
2023/01/04 03:16:24;;;;;;;1.00;0.90;;;;;;;;;;7385893;19;20121;-65
2023/01/04 03:18:51;;;;;;;0.60;0.60;;;;;;;;;;7388473;19;20160;-65
2023/01/04 03:21:17;;;;;;;0.50;0.50;;;;;;;;;;7391683;19;20109;-65
2023/01/04 03:35:42;;;;;;;1.20;1.20;;;;;;;;;;7391706;19;20132;-65
2023/01/04 03:49:59;;;;;;;0.43;0.43;;;;;;;;;;7377182;19;20136;-65
2023/01/04 03:52:27;;;;;;;0.53;0.53;;;;;;;;;;7379097;19;20113;-65
2023/01/04 03:54:53;;;;;;;0.77;0.77;;;;;;;;;;7382702;19;20123;-65
2023/01/04 03:57:19;;;;;;;0.60;0.60;;;;;;;;;;7385034;19;20109;-65
2023/01/04 03:59:48;;;;;;;0.70;0.70;;;;;;;;;;7385958;19;20120;-65
2023/01/04 04:02:18;;;;;;;2.23;0.93;;;;;;;;;;7390486;19;20113;-65
2023/01/04 04:10:11;;;;;;;0.83;0.83;;;;;;;;;;7380189;19;20499;-65
2023/01/04 04:12:37;;;;;;;0.53;0.53;;;;;;;;;;7368775;19;20184;-65
2023/01/04 04:15:03;;;;;;;0.30;0.30;;;;;;;;;;7358458;19;20129;-65
2023/01/04 04:17:28;;;;;;;1.07;1.07;;;;;;;;;;7376745;19;20141;-65
2023/01/04 04:19:53;;;;;;;0.60;0.60;;;;;;;;;;7374934;19;20135;-65
2023/01/04 04:22:18;;;;;;;0.50;0.50;;;;;;;;;;7386107;19;20554;-65
2023/01/04 04:24:44;;;;;;;0.60;0.60;;;;;;;;;;7390341;19;20149;-65
2023/01/04 04:27:09;;;;;;;0.77;0.77;;;;;;;;;;7392066;19;20112;-65
2023/01/04 04:29:34;;;;;;;0.50;0.50;;;;;;;;;;7381997;19;20253;-65
2023/01/04 04:32:00;;;;;;;0.47;0.47;;;;;;;;;;7389905;19;20120;-65
2023/01/04 04:34:25;;;;;;;0.83;0.83;;;;;;;;;;7387010;19;20615;-65
2023/01/04 04:36:50;;;;;;;0.80;0.80;;;;;;;;;;7389181;19;20121;-65
2023/01/04 04:39:16;;;;;;;0.60;0.60;;;;;;;;;;7384287;19;20109;-65
2023/01/04 04:41:41;;;;;;;0.53;0.53;;;;;;;;;;7387405;19;20121;-65
2023/01/04 04:44:15;;;;;;;0.63;0.63;;;;;;;;;;7380421;19;20175;-65
2023/01/04 04:46:41;;;;;;;1.17;0.97;;;;;;;;;;7378977;19;20123;-65
2023/01/04 04:49:07;;;;;;;0.50;0.50;;;;;;;;;;7379513;19;20137;-65
2023/01/04 04:51:32;;;;;;;0.80;0.80;;;;;;;;;;7380466;19;20157;-65
2023/01/04 04:53:57;;;;;;;1.43;1.27;;;;;;;;;;7383348;19;20148;-65
2023/01/04 04:56:23;;;;;;;1.00;1.00;;;;;;;;;;7379629;19;20126;-65
2023/01/04 04:58:49;;;;;;;1.73;1.63;;;;;;;;;;7384845;19;20124;-65
2023/01/04 05:01:14;;;;;;;0.77;0.77;;;;;;;;;;7379515;19;20121;-65
2023/01/04 05:03:40;;;;;;;0.60;0.60;;;;;;;;;;7378039;19;20159;-65
2023/01/04 05:06:05;;;;;;;0.40;0.40;;;;;;;;;;7376339;19;20117;-65
2023/01/04 05:08:31;;;;;;;0.60;0.60;;;;;;;;;;7381328;19;20133;-65
2023/01/04 05:10:56;;;;;;;0.67;0.50;;;;;;;;;;7383613;19;20118;-65
2023/01/04 05:13:22;;;;;;;1.00;1.00;;;;;;;;;;7382373;19;20537;-65
2023/01/04 05:15:50;;;;;;;0.43;0.40;;;;;;;;;;7379818;19;20121;-65
2023/01/04 05:18:17;;;;;;;1.40;1.30;;;;;;;;;;7379531;19;20141;-65
2023/01/04 05:20:42;;;;;;;1.53;1.43;;;;;;;;;;7377425;19;20109;-65
2023/01/04 05:23:10;;;;;;;0.50;0.50;;;;;;;;;;7382505;19;20501;-65
2023/01/04 05:25:35;;;;;;;0.87;0.87;;;;;;;;;;7380134;19;20149;-65
2023/01/04 05:28:00;;;;;;;1.93;1.83;;;;;;;;;;7381061;19;20123;-65
2023/01/04 05:33:10;;;;;;;1.60;1.20;;;;;;;;;;7377132;19;20148;-65
2023/01/04 05:35:35;;;;;;;1.53;1.43;;;;;;;;;;7375969;19;20358;-65
2023/01/04 05:38:00;;;;;;;2.83;1.30;;;;;;;;;;7380818;19;20717;-65
2023/01/04 05:40:26;;;;;;;1.17;1.17;;;;;;;;;;7383092;19;20113;-65
2023/01/04 05:42:51;;;;;;;1.53;1.17;;;;;;;;;;7376621;19;20189;-65
2023/01/04 05:45:18;;;;;;;1.07;1.07;;;;;;;;;;7373197;19;20480;-65
2023/01/04 05:47:43;;;;;;;1.97;1.13;;;;;;;;;;7378761;19;20141;-64
2023/01/04 05:50:10;;;;;;;0.90;0.90;;;;;;;;;;7378659;19;20496;-65
2023/01/04 05:52:35;;;;;;;2.03;1.80;;;;;;;;;;7384022;19;20140;-66
2023/01/04 05:55:01;;;;;;;1.50;1.37;;;;;;;;;;7379967;19;20173;-65
2023/01/04 05:57:26;;;;;;;3.03;2.53;;;;;;;;;;7384217;19;20159;-65
2023/01/04 05:59:51;;;;;;;1.03;1.00;;;;;;;;;;7382169;19;20109;-66
2023/01/04 06:02:19;;;;;;;2.97;2.10;;;;;;;;;;7383531;19;20135;-64
2023/01/04 06:04:45;;;;;;;3.13;1.70;;;;;;;;;;7384169;19;20152;-65
2023/01/04 06:07:10;;;;;;;1.43;1.40;;;;;;;;;;7387650;19;20112;-66
2023/01/04 06:09:35;;;;;;;1.00;1.00;;;;;;;;;;7394961;19;20117;-64
2023/01/04 06:12:01;;;;;;;3.97;2.17;;;;;;;;;;7397754;19;20114;-65
2023/01/04 06:14:26;;;;;;;1.53;1.43;;;;;;;;;;7393979;19;20487;-65
2023/01/04 06:16:54;;;;;;;2.37;2.27;;;;;;;;;;7364792;19;20682;-65
2023/01/04 06:19:19;;;;;;;1.53;1.43;;;;;;;;;;7358896;19;20310;-65
2023/01/04 06:21:44;;;;;;;0.97;0.97;;;;;;;;;;7362803;19;20132;-65
2023/01/04 06:24:10;;;;;;;1.83;1.63;;;;;;;;;;7361940;19;20182;-65
2023/01/04 06:26:35;;;;;;;0.93;0.93;;;;;;;;;;7360912;19;20133;-65
2023/01/04 06:29:01;;;;;;;0.60;0.60;;;;;;;;;;7361558;19;20141;-65
2023/01/04 06:31:26;;;;;;;1.07;1.07;;;;;;;;;;7359067;19;20117;-65
2023/01/04 06:33:51;;;;;;;0.77;0.70;;;;;;;;;;7353768;19;20152;-65
2023/01/04 06:36:16;;;;;;;0.53;0.53;;;;;;;;;;7355615;19;20121;-65
2023/01/04 06:38:42;;;;;;;0.90;0.90;;;;;;;;;;7351622;19;20607;-65
2023/01/04 06:41:07;;;;;;;1.47;1.37;;;;;;;;;;7345464;19;20134;-65
2023/01/04 06:43:32;;;;;;;1.53;1.43;;;;;;;;;;7357067;19;20153;-65
2023/01/04 06:46:00;;;;;;;1.77;1.50;;;;;;;;;;7349931;19;20125;-65
2023/01/04 06:48:25;;;;;;;1.27;1.17;;;;;;;;;;7347025;19;20767;-65
2023/01/04 06:50:50;;;;;;;1.87;1.43;;;;;;;;;;7349257;19;20117;-65
2023/01/04 06:53:16;;;;;;;1.67;1.57;;;;;;;;;;7355095;19;20628;-65
2023/01/04 06:55:43;;;;;;;1.13;1.07;;;;;;;;;;7357891;19;20164;-65
2023/01/04 06:58:08;;;;;;;0.30;0.30;;;;;;;;;;7365601;19;20484;-65
2023/01/04 07:00:33;;;;;;;1.30;1.20;;;;;;;;;;7341710;19;20135;-65
2023/01/04 07:02:59;;;;;;;4.33;1.50;;;;;;;;;;7371830;19;20173;-65
2023/01/04 07:05:24;;;;;;;0.70;0.70;;;;;;;;;;7388995;19;20124;-65
2023/01/04 07:07:49;;;;;;;1.93;1.40;;;;;;;;;;7390853;19;20141;-65
2023/01/04 07:10:14;;;;;;;0.93;0.73;;;;;;;;;;7379362;19;20473;-65
2023/01/04 07:12:40;;;;;;;1.97;1.30;;;;;;;;;;7393124;19;20118;-65
2023/01/04 07:15:06;;;;;;;0.67;0.67;;;;;;;;;;7379067;19;20129;-65
2023/01/04 07:17:31;;;;;;;3.03;2.07;;;;;;;;;;7385419;19;20136;-65
2023/01/04 07:19:56;;;;;;;1.30;0.73;;;;;;;;;;7366740;19;20125;-65
2023/01/04 07:22:22;;;;;;;0.87;0.87;;;;;;;;;;7366220;19;20125;-65
2023/01/04 07:24:47;;;;;;;0.70;0.70;;;;;;;;;;7358599;19;20141;-65
2023/01/04 07:27:13;;;;;;;0.80;0.80;;;;;;;;;;7379661;19;20553;-64
2023/01/04 07:29:38;;;;;;;1.23;1.20;;;;;;;;;;7372455;19;20549;-65
2023/01/04 07:32:04;;;;;;;1.30;1.10;;;;;;;;;;7384321;19;20117;-65
2023/01/04 07:34:30;;;;;;;1.77;0.80;;;;;;;;;;7380455;19;20149;-65
2023/01/04 07:36:55;;;;;;;1.17;1.17;;;;;;;;;;7389459;19;20143;-66
2023/01/04 07:39:21;;;;;;;1.27;1.27;;;;;;;;;;7379793;19;20544;-65
2023/01/04 07:41:47;;;;;;;0.40;0.40;;;;;;;;;;7383086;19;20156;-65
2023/01/04 07:44:13;;;;;;;1.37;1.30;;;;;;;;;;7381642;19;20528;-65
2023/01/04 07:46:38;;;;;;;5.03;1.57;;;;;;;;;;7383114;19;20154;-65
2023/01/04 07:49:04;;;;;;;0.57;0.57;;;;;;;;;;7385267;19;20178;-65
2023/01/04 07:51:31;;;;;;;0.97;0.97;;;;;;;;;;7387707;19;20153;-65
2023/01/04 07:53:57;;;;;;;1.30;0.90;;;;;;;;;;7391087;19;20145;-65
2023/01/04 07:56:22;;;;;;;1.57;1.47;;;;;;;;;;7384471;19;20610;-65
2023/01/04 07:58:47;;;;;;;0.70;0.70;;;;;;;;;;7386423;19;20128;-65
2023/01/04 08:01:15;;;;;;;1.53;1.43;;;;;;;;;;7355898;19;20129;-65
2023/01/04 08:03:41;;;;;;;1.33;1.33;;;;;;;;;;7360425;19;20149;-65
2023/01/04 08:06:09;;;;;;;0.67;0.40;;;;;;;;;;7340537;19;20125;-65
2023/01/04 08:08:34;;;;;;;1.20;0.90;;;;;;;;;;7329883;19;20498;-65
2023/01/04 08:11:01;;;;;;;1.27;1.17;;;;;;;;;;7338325;19;20113;-65
2023/01/04 08:13:27;;;;;;;1.00;0.93;;;;;;;;;;7338040;19;20145;-65
2023/01/04 08:15:52;;;;;;;0.70;0.70;;;;;;;;;;7333028;19;20127;-65
2023/01/04 08:18:18;;;;;;;1.03;0.97;;;;;;;;;;7336716;19;20610;-65
2023/01/04 08:20:43;;;;;;;1.40;1.00;;;;;;;;;;7337162;19;20490;-65
2023/01/04 08:23:08;;;;;;;0.60;0.60;;;;;;;;;;7332262;19;20145;-65
2023/01/04 08:25:34;;;;;;;0.73;0.73;;;;;;;;;;7344778;19;20121;-65
2023/01/04 08:27:59;;;;;;;1.20;1.20;;;;;;;;;;7357222;19;20128;-65
2023/01/04 08:30:24;;;;;;;2.67;1.57;;;;;;;;;;7370683;19;20125;-65
2023/01/04 08:32:52;;;;;;;1.23;1.13;;;;;;;;;;7379729;19;20715;-65
2023/01/04 08:35:17;;;;;;;1.43;1.33;;;;;;;;;;7358291;19;20638;-65
2023/01/04 08:37:43;;;;;;;0.80;0.73;;;;;;;;;;7375395;19;20152;-65
2023/01/04 08:40:09;;;;;;;0.70;0.70;;;;;;;;;;7376949;19;20125;-65
2023/01/04 08:42:34;;;;;;;0.87;0.80;;;;;;;;;;7383954;19;20137;-65
2023/01/04 08:45:00;;;;;;;0.90;0.90;;;;;;;;;;7374397;19;20129;-65
2023/01/04 08:47:26;;;;;;;0.57;0.57;;;;;;;;;;7369529;19;20121;-65
2023/01/04 08:49:51;;;;;;;1.70;1.40;;;;;;;;;;7369963;19;20152;-65
2023/01/04 08:52:16;;;;;;;1.07;1.03;;;;;;;;;;7373963;19;20200;-65
2023/01/04 08:54:41;;;;;;;1.37;1.30;;;;;;;;;;7376089;19;20176;-66
2023/01/04 08:57:07;;;;;;;1.17;1.17;;;;;;;;;;7383769;19;20113;-66
2023/01/04 08:59:32;;;;;;;1.00;1.00;;;;;;;;;;7373661;19;20128;-66
2023/01/04 09:01:57;;;;;;;2.53;1.57;;;;;;;;;;7362449;19;20141;-66
2023/01/04 09:04:23;;;;;;;1.90;1.20;;;;;;;;;;7366857;19;20152;-66
2023/01/04 09:06:48;;;;;;;1.20;1.20;;;;;;;;;;7369324;19;20184;-66
2023/01/04 09:09:14;;;;;;;0.50;0.50;;;;;;;;;;7369597;19;20212;-66
2023/01/04 09:11:39;;;;;;;0.63;0.63;;;;;;;;;;7383446;19;20109;-66
2023/01/04 09:14:07;;;;;;;1.07;1.07;;;;;;;;;;7373822;19;20153;-66
2023/01/04 09:16:33;;;;;;;1.10;1.10;;;;;;;;;;7379879;19;20125;-66
2023/01/04 09:18:58;;;;;;;1.10;1.10;;;;;;;;;;7371683;19;20144;-66
2023/01/04 09:21:23;;;;;;;1.53;1.43;;;;;;;;;;7366923;19;20113;-65
2023/01/04 09:23:49;;;;;;;0.83;0.83;;;;;;;;;;7372702;19;20220;-66
2023/01/04 09:26:22;;;;;;;0.87;0.87;;;;;;;;;;7368196;19;20121;-66
2023/01/04 09:28:49;;;;;;;1.30;1.20;;;;;;;;;;7372463;19;20145;-66
2023/01/04 09:31:17;;;;;;;0.30;0.30;;;;;;;;;;7374104;19;20594;-66
2023/01/04 09:33:43;;;;;;;0.20;0.20;;;;;;;;;;7378325;19;20593;-66
2023/01/04 09:36:10;;;;;;;0.20;0.20;;;;;;;;;;7385609;19;20117;-66
2023/01/04 09:38:35;;;;;;;0.27;0.27;;;;;;;;;;7391397;19;20125;-66
2023/01/04 09:41:13;;;;;;;0.50;0.50;;;;;;;;;;7384123;19;20125;-66
2023/01/04 09:43:47;;;;;;;0.40;0.40;;;;;;;;;;7387841;19;20504;-66
2023/01/04 09:46:29;;;;;;;0.40;0.40;;;;;;;;;;7372591;19;20132;-66
2023/01/04 09:49:06;;;;;;;3.13;0.60;;;;;;;;;;7373025;19;20120;-66
2023/01/04 09:51:35;;;;;;;1.30;0.87;;;;;;;;;;7372757;19;20129;-66
2023/01/04 09:54:11;;;;;;;0.50;0.50;;;;;;;;;;7369959;19;20145;-66
2023/01/04 09:56:36;;;;;;;0.30;0.30;;;;;;;;;;7378112;19;20121;-66
2023/01/04 09:59:06;;;;;;;0.40;0.40;;;;;;;;;;7371251;19;20150;-65
2023/01/04 10:01:40;;;;;;;0.50;0.50;;;;;;;;;;7357004;19;20117;-66
2023/01/04 10:04:17;;;;;;;0.53;0.53;;;;;;;;;;7357680;19;20741;-66
2023/01/04 10:06:42;;;;;;;1.50;0.77;;;;;;;;;;7344984;19;20121;-65
2023/01/04 10:09:13;;;;;;;0.40;0.40;;;;;;;;;;7345010;19;20493;-66
2023/01/04 10:12:00;;;;;;;0.53;0.53;;;;;;;;;;7342750;19;20546;-66
2023/01/04 10:15:05;;;;;;;0.30;0.30;;;;;;;;;;7329068;19;20149;-66
2023/01/04 10:18:16;;;;;;;0.20;0.20;;;;;;;;;;7344725;19;20225;-66
2023/01/04 10:20:50;;;;;;;0.50;0.50;;;;;;;;;;7342436;19;20611;-66
2023/01/04 10:23:43;;;;;;;0.30;0.30;;;;;;;;;;7342021;19;20196;-66
2023/01/04 10:26:14;;;;;;;0.30;0.30;;;;;;;;;;7337425;19;20503;-66
2023/01/04 10:29:01;;;;;;;0.37;0.37;;;;;;;;;;7346742;19;20125;-66
2023/01/04 10:31:36;;;;;;;0.20;0.20;;;;;;;;;;7347607;19;20133;-66
2023/01/04 10:34:13;;;;;;;0.67;0.50;;;;;;;;;;7363147;19;20155;-66
2023/01/04 10:36:39;;;;;;;0.40;0.40;;;;;;;;;;7355895;19;20623;-66
2023/01/04 10:39:12;;;;;;;0.60;0.60;;;;;;;;;;7376294;19;20208;-65
2023/01/04 10:41:57;;;;;;;0.33;0.33;;;;;;;;;;7371853;19;20579;-66
2023/01/04 10:44:29;;;;;;;0.30;0.30;;;;;;;;;;7379359;19;20183;-66
2023/01/04 10:47:18;;;;;;;0.53;0.53;;;;;;;;;;7359983;19;20160;-66
2023/01/04 10:49:48;;;;;;;0.20;0.20;;;;;;;;;;7352919;19;20501;-65
2023/01/04 10:52:36;;;;;;;0.30;0.30;;;;;;;;;;7347406;19;20469;-66
2023/01/04 10:55:03;;;;;;;0.37;0.37;;;;;;;;;;7356922;19;21217;-65
2023/01/04 10:57:49;;;;;;;0.70;0.70;;;;;;;;;;7361501;19;20136;-66
2023/01/04 11:00:51;;;;;;;0.33;0.33;;;;;;;;;;7377045;19;20132;-66
2023/01/04 22:56:35;;;;;;;0.40;0.40;;;;;;;;;;7381476;19;20192;-66
2023/01/04 22:59:00;;;;;;;0.30;0.30;;;;;;;;;;7377045;19;20160;-65
2023/01/04 23:01:29;;;;;;;0.63;0.63;;;;;;;;;;7386617;19;20125;-65
2023/01/04 23:03:54;;;;;;;0.20;0.20;;;;;;;;;;7379718;19;20156;-65
2023/01/04 23:06:20;;;;;;;0.40;0.40;;;;;;;;;;7387550;19;20145;-65
2023/01/04 23:08:45;;;;;;;0.30;0.30;;;;;;;;;;7391286;19;20182;-64
2023/01/04 23:11:14;;;;;;;0.30;0.30;;;;;;;;;;7392817;19;20129;-64
2023/01/04 23:13:40;;;;;;;0.40;0.40;;;;;;;;;;7383602;19;20156;-64
2023/01/04 23:16:08;;;;;;;0.50;0.50;;;;;;;;;;7390897;19;20582;-64
2023/01/04 23:18:34;;;;;;;0.40;0.40;;;;;;;;;;7389526;19;20128;-65
2023/01/04 23:20:59;;;;;;;0.30;0.30;;;;;;;;;;7392425;19;20129;-65
2023/01/04 23:23:25;;;;;;;0.30;0.30;;;;;;;;;;7386455;19;20543;-64
2023/01/04 23:25:50;;;;;;;0.40;0.40;;;;;;;;;;7391827;19;20118;-65
2023/01/04 23:28:15;;;;;;;0.30;0.30;;;;;;;;;;7392529;19;20192;-65
2023/01/04 23:30:42;;;;;;;0.73;0.73;;;;;;;;;;7393667;19;20132;-66
2023/01/04 23:33:08;;;;;;;0.50;0.50;;;;;;;;;;7390595;19;20497;-64
2023/01/04 23:35:33;;;;;;;0.30;0.30;;;;;;;;;;7386503;19;20208;-65
2023/01/04 23:37:58;;;;;;;0.50;0.50;;;;;;;;;;7393819;19;20125;-65
2023/01/04 23:40:24;;;;;;;0.50;0.50;;;;;;;;;;7391200;19;20132;-65
2023/01/04 23:42:51;;;;;;;0.33;0.33;;;;;;;;;;7388696;19;20302;-65
2023/01/04 23:45:16;;;;;;;0.30;0.30;;;;;;;;;;7389988;19;20192;-65
2023/01/04 23:47:41;;;;;;;1.00;0.70;;;;;;;;;;7394315;19;20531;-65
2023/01/04 23:50:08;;;;;;;0.30;0.30;;;;;;;;;;7389905;19;20524;-65
2023/01/04 23:52:33;;;;;;;0.30;0.30;;;;;;;;;;7393096;19;20144;-65
2023/01/04 23:54:59;;;;;;;0.20;0.20;;;;;;;;;;7386233;19;20125;-64
2023/01/04 23:57:24;;;;;;;0.20;0.20;;;;;;;;;;7390535;19;20458;-65
2023/01/04 23:59:49;;;;;;;0.30;0.30;;;;;;;;;;7388311;19;22000;-64
